createdAt,value
2022-11-16T00:00:18.037Z,2.40
2022-11-16T00:02:45.274Z,2.50
2022-11-16T00:05:12.925Z,2.50
2022-11-16T00:07:40.034Z,2.50
2022-11-16T00:10:07.485Z,2.60
2022-11-16T00:12:34.949Z,2.60
2022-11-16T00:15:02.098Z,2.60
2022-11-16T00:17:29.363Z,2.60
2022-11-16T00:19:56.656Z,2.60
2022-11-16T00:22:23.815Z,2.60
2022-11-16T00:24:51.092Z,2.70
2022-11-16T00:27:18.408Z,2.70
2022-11-16T00:29:45.740Z,2.60
2022-11-16T00:32:13.065Z,2.60
2022-11-16T00:34:40.400Z,2.50
2022-11-16T00:37:07.719Z,2.50
2022-11-16T00:39:34.936Z,2.50
2022-11-16T00:42:02.013Z,2.50
2022-11-16T00:44:29.297Z,2.50
2022-11-16T00:46:56.372Z,2.60
2022-11-16T00:49:23.436Z,2.50
2022-11-16T00:51:50.560Z,2.50
2022-11-16T00:54:17.700Z,2.60
2022-11-16T00:56:45.153Z,2.60
2022-11-16T00:59:12.256Z,2.70
2022-11-16T01:01:39.427Z,2.70
2022-11-16T01:04:06.664Z,2.70
2022-11-16T01:06:33.907Z,2.70
2022-11-16T01:09:01.233Z,2.70
2022-11-16T01:11:46.820Z,2.70
2022-11-16T01:14:13.956Z,2.70
2022-11-16T01:16:41.115Z,2.70
2022-11-16T01:19:08.558Z,2.60
2022-11-16T01:21:35.754Z,2.70
2022-11-16T01:24:02.871Z,2.70
2022-11-16T01:26:30.224Z,2.70
2022-11-16T01:28:58.492Z,2.60
2022-11-16T01:31:25.590Z,2.60
2022-11-16T01:33:52.892Z,2.60
2022-11-16T01:36:20.029Z,2.50
2022-11-16T01:38:47.818Z,2.50
2022-11-16T01:41:19.511Z,2.50
2022-11-16T01:44:06.343Z,2.50
2022-11-16T01:46:33.619Z,2.40
2022-11-16T01:49:14.783Z,2.50
2022-11-16T01:51:44.184Z,2.40
2022-11-16T01:54:12.820Z,2.40
2022-11-16T01:56:40.939Z,2.40
2022-11-16T01:59:08.209Z,2.40
2022-11-16T02:01:35.484Z,2.40
2022-11-16T02:04:02.601Z,2.50
2022-11-16T02:06:47.991Z,2.50
2022-11-16T02:09:51.927Z,2.50
2022-11-16T02:12:19.087Z,2.50
2022-11-16T02:15:03.868Z,2.60
2022-11-16T02:17:35.847Z,2.60
2022-11-16T02:20:21.908Z,2.60
2022-11-16T02:23:05.548Z,2.60
2022-11-16T02:25:51.249Z,2.70
2022-11-16T02:28:18.437Z,2.70
2022-11-16T02:30:47.933Z,2.70
2022-11-16T02:33:17.176Z,2.60
2022-11-16T02:35:47.511Z,2.70
2022-11-16T02:38:17.493Z,2.60
2022-11-16T02:40:46.936Z,2.60
2022-11-16T02:43:17.872Z,2.50
2022-11-16T02:45:48.152Z,2.50
2022-11-16T02:48:18.151Z,2.60
2022-11-16T02:50:46.233Z,2.50
2022-11-16T02:53:13.575Z,2.50
2022-11-16T02:55:40.951Z,2.50
2022-11-16T02:58:10.654Z,2.50
2022-11-16T03:00:58.056Z,2.60
2022-11-16T03:03:25.751Z,2.50
2022-11-16T03:05:54.471Z,2.50
2022-11-16T03:08:24.770Z,2.50
2022-11-16T03:11:15.815Z,2.50
2022-11-16T03:13:43.874Z,2.40
2022-11-16T03:16:17.233Z,2.40
2022-11-16T03:18:44.823Z,2.40
2022-11-16T03:21:38.414Z,2.40
2022-11-16T03:24:06.245Z,2.40
2022-11-16T03:26:38.234Z,2.40
2022-11-16T03:29:15.417Z,2.30
2022-11-16T03:31:47.880Z,2.30
2022-11-16T03:34:17.014Z,2.30
2022-11-16T03:36:46.663Z,2.30
2022-11-16T03:39:25.862Z,2.30
2022-11-16T03:41:53.549Z,2.30
2022-11-16T03:44:21.412Z,2.40
2022-11-16T03:46:48.740Z,2.30
2022-11-16T03:49:15.816Z,2.40
2022-11-16T03:51:43.072Z,2.40
2022-11-16T03:54:10.135Z,2.40
2022-11-16T03:56:37.230Z,2.50
2022-11-16T03:59:04.424Z,2.40
2022-11-16T04:01:31.627Z,2.40
2022-11-16T04:03:58.872Z,2.40
2022-11-16T04:06:44.486Z,2.50
2022-11-16T04:09:30.023Z,2.40
2022-11-16T04:12:15.467Z,2.50
2022-11-16T04:15:01.424Z,2.50
2022-11-16T04:17:47.132Z,2.40
2022-11-16T04:20:33.867Z,2.40
2022-11-16T04:23:25.318Z,2.40
2022-11-16T04:25:52.620Z,2.40
2022-11-16T04:28:24.354Z,2.30
2022-11-16T04:31:15.245Z,2.30
2022-11-16T04:34:01.349Z,2.40
2022-11-16T04:36:47.013Z,2.40
2022-11-16T04:39:14.062Z,2.30
2022-11-16T04:41:59.850Z,2.30
2022-11-16T04:44:47.030Z,2.20
2022-11-16T04:47:14.133Z,2.10
2022-11-16T04:49:41.220Z,2.10
2022-11-16T04:52:09.131Z,2.00
2022-11-16T04:54:36.259Z,2.00
2022-11-16T04:57:03.659Z,2.00
2022-11-16T04:59:30.796Z,1.90
2022-11-16T05:02:09.640Z,1.90
2022-11-16T05:04:37.762Z,1.90
2022-11-16T05:07:04.957Z,1.90
2022-11-16T05:09:31.985Z,1.90
2022-11-16T05:11:59.055Z,1.90
2022-11-16T05:14:26.115Z,1.90
2022-11-16T05:16:53.191Z,1.90
2022-11-16T05:19:38.629Z,1.90
2022-11-16T05:22:05.669Z,1.90
2022-11-16T05:24:35.513Z,1.90
2022-11-16T05:27:03.911Z,1.90
2022-11-16T05:29:31.389Z,1.90
2022-11-16T05:31:59.240Z,1.90
2022-11-16T05:34:26.598Z,2.00
2022-11-16T05:36:54.626Z,2.00
2022-11-16T05:39:22.008Z,2.00
2022-11-16T05:41:49.426Z,1.90
2022-11-16T05:44:16.677Z,1.90
2022-11-16T05:46:43.874Z,1.90
2022-11-16T05:49:12.152Z,1.90
2022-11-16T05:51:40.660Z,2.00
2022-11-16T05:54:08.393Z,1.90
2022-11-16T05:56:35.684Z,1.90
2022-11-16T05:59:03.235Z,2.00
2022-11-16T06:01:30.461Z,2.00
2022-11-16T06:04:00.469Z,1.90
2022-11-16T06:06:28.151Z,2.00
2022-11-16T06:08:55.414Z,2.00
2022-11-16T06:11:22.627Z,2.00
2022-11-16T06:13:49.963Z,2.00
2022-11-16T06:16:17.574Z,2.00
2022-11-16T06:18:45.794Z,2.00
2022-11-16T06:21:13.467Z,2.00
2022-11-16T06:23:40.660Z,2.00
2022-11-16T06:26:08.323Z,2.00
2022-11-16T06:28:35.804Z,2.10
2022-11-16T06:31:03.698Z,2.10
2022-11-16T06:33:33.512Z,2.10
2022-11-16T06:36:01.135Z,2.10
2022-11-16T06:38:28.562Z,2.10
2022-11-16T06:40:57.280Z,2.10
2022-11-16T06:43:25.133Z,2.10
2022-11-16T06:45:53.839Z,2.20
2022-11-16T06:48:21.413Z,2.20
2022-11-16T06:50:49.834Z,2.20
2022-11-16T06:53:17.413Z,2.10
2022-11-16T06:55:45.003Z,2.20
2022-11-16T06:58:12.127Z,2.20
2022-11-16T07:00:39.286Z,2.10
2022-11-16T07:03:06.523Z,2.20
2022-11-16T07:05:33.714Z,2.20
2022-11-16T07:08:01.010Z,2.30
2022-11-16T07:10:28.206Z,2.20
2022-11-16T07:12:55.447Z,2.20
2022-11-16T07:15:22.627Z,2.20
2022-11-16T07:17:49.868Z,2.20
2022-11-16T07:20:17.117Z,2.20
2022-11-16T07:22:44.388Z,2.20
2022-11-16T07:25:11.472Z,2.10
2022-11-16T07:27:38.635Z,2.10
2022-11-16T07:30:06.071Z,2.20
2022-11-16T07:32:33.211Z,2.20
2022-11-16T07:35:00.313Z,2.20
2022-11-16T07:37:27.422Z,2.20
2022-11-16T07:39:54.545Z,2.20
2022-11-16T07:42:21.689Z,2.30
2022-11-16T07:44:48.754Z,2.30
2022-11-16T07:47:15.886Z,2.30
2022-11-16T07:49:43.004Z,2.30
2022-11-16T07:52:10.488Z,2.30
2022-11-16T07:54:37.848Z,2.40
2022-11-16T07:57:04.897Z,2.40
2022-11-16T07:59:32.037Z,2.50
2022-11-16T08:01:59.494Z,2.50
2022-11-16T08:04:26.730Z,2.50
2022-11-16T08:06:54.053Z,2.50
2022-11-16T08:09:21.246Z,2.50
2022-11-16T08:11:48.317Z,2.50
2022-11-16T08:14:15.993Z,2.50
2022-11-16T08:16:43.640Z,2.60
2022-11-16T08:19:10.871Z,2.60
2022-11-16T08:21:37.977Z,2.60
2022-11-16T08:24:05.250Z,2.70
2022-11-16T08:26:32.283Z,2.70
2022-11-16T08:28:59.327Z,2.70
2022-11-16T08:31:28.166Z,2.70
2022-11-16T08:33:55.759Z,2.80
2022-11-16T08:36:22.899Z,2.70
2022-11-16T08:38:51.130Z,2.70
2022-11-16T08:41:18.939Z,2.70
2022-11-16T08:43:47.510Z,2.60
2022-11-16T08:46:15.363Z,2.60
2022-11-16T08:48:42.802Z,2.60
2022-11-16T08:51:19.481Z,2.70
2022-11-16T08:53:49.378Z,2.70
2022-11-16T08:56:17.996Z,2.70
2022-11-16T08:58:47.484Z,2.80
2022-11-16T09:01:19.377Z,2.90
2022-11-16T09:03:47.171Z,3.00
2022-11-16T09:06:14.757Z,3.00
2022-11-16T09:08:43.146Z,3.10
2022-11-16T09:11:12.183Z,3.00
2022-11-16T09:13:39.328Z,3.00
2022-11-16T09:16:06.496Z,2.90
2022-11-16T09:18:33.923Z,2.80
2022-11-16T09:21:01.217Z,2.80
2022-11-16T09:23:28.532Z,2.80
2022-11-16T09:25:55.631Z,2.90
2022-11-16T09:28:23.022Z,2.80
2022-11-16T09:30:51.251Z,2.70
2022-11-16T09:33:18.714Z,2.70
2022-11-16T09:35:47.321Z,2.70
2022-11-16T09:38:19.756Z,2.80
2022-11-16T09:40:51.598Z,2.70
2022-11-16T09:43:37.447Z,2.70
2022-11-16T09:46:18.472Z,2.70
2022-11-16T09:48:46.127Z,2.70
2022-11-16T09:51:14.799Z,2.70
2022-11-16T09:53:44.687Z,2.80
2022-11-16T09:56:25.483Z,2.90
2022-11-16T09:58:56.915Z,2.90
2022-11-16T10:01:27.500Z,3.00
2022-11-16T10:03:58.899Z,3.10
2022-11-16T10:06:44.455Z,3.10
2022-11-16T10:09:12.819Z,3.10
2022-11-16T10:11:44.834Z,3.00
2022-11-16T10:14:21.581Z,2.90
2022-11-16T10:16:54.791Z,2.90
2022-11-16T10:19:46.940Z,2.90
2022-11-16T10:22:32.564Z,2.90
2022-11-16T10:24:59.771Z,2.90
2022-11-16T10:27:35.742Z,2.90
2022-11-16T10:30:08.867Z,2.90
2022-11-16T10:32:41.456Z,3.00
2022-11-16T10:35:09.509Z,3.10
2022-11-16T10:37:39.075Z,3.00
2022-11-16T10:40:21.506Z,3.00
2022-11-16T10:42:52.376Z,2.90
2022-11-16T10:45:29.704Z,2.80
2022-11-16T10:48:06.085Z,2.90
2022-11-16T10:50:37.843Z,3.00
2022-11-16T10:53:05.030Z,3.00
2022-11-16T10:55:32.247Z,3.00
2022-11-16T10:58:03.247Z,3.00
2022-11-16T11:00:38.105Z,2.90
2022-11-16T11:03:05.447Z,2.90
2022-11-16T11:05:32.889Z,2.90
2022-11-16T11:08:07.709Z,2.90
2022-11-16T11:10:36.318Z,2.90
2022-11-16T11:13:17.935Z,2.90
2022-11-16T11:15:45.253Z,2.90
2022-11-16T11:18:24.503Z,3.00
2022-11-16T11:20:53.938Z,3.00
2022-11-16T11:23:22.271Z,3.00
2022-11-16T11:25:49.627Z,3.10
2022-11-16T11:28:32.136Z,3.10
2022-11-16T11:31:02.315Z,3.20
2022-11-16T11:33:34.285Z,3.20
2022-11-16T11:36:08.431Z,3.00
2022-11-16T11:38:54.556Z,3.10
2022-11-16T11:41:21.778Z,3.10
2022-11-16T11:44:04.938Z,3.20
2022-11-16T11:47:23.643Z,3.20
2022-11-16T11:49:34.182Z,3.30
2022-11-16T11:52:04.995Z,3.10
2022-11-16T11:54:43.152Z,3.10
2022-11-16T11:57:16.053Z,3.20
2022-11-16T11:59:43.498Z,3.20
2022-11-16T12:02:33.972Z,3.10
2022-11-16T12:05:04.652Z,3.20
2022-11-16T12:07:41.323Z,3.20
2022-11-16T12:10:27.300Z,3.20
2022-11-16T12:12:58.669Z,3.20
2022-11-16T12:15:58.043Z,3.20
2022-11-16T12:18:43.630Z,3.10
2022-11-16T12:21:15.264Z,3.10
2022-11-16T12:24:00.670Z,2.90
2022-11-16T12:26:36.840Z,3.00
2022-11-16T12:29:03.996Z,3.00
2022-11-16T12:31:43.058Z,3.00
2022-11-16T12:34:13.962Z,3.00
2022-11-16T12:36:50.657Z,3.00
2022-11-16T12:39:23.351Z,3.10
2022-11-16T12:41:59.253Z,3.10
2022-11-16T12:44:39.264Z,3.10
2022-11-16T12:47:14.879Z,3.10
2022-11-16T12:49:48.681Z,3.10
2022-11-16T12:52:34.467Z,3.00
2022-11-16T12:58:13.545Z,3.10
2022-11-16T13:00:49.898Z,3.00
2022-11-16T13:03:47.519Z,3.00
2022-11-16T13:06:19.630Z,3.00
2022-11-16T13:08:50.902Z,2.90
2022-11-16T13:11:21.149Z,2.90
2022-11-16T13:13:53.449Z,2.90
2022-11-16T13:16:22.011Z,2.90
2022-11-16T13:18:49.181Z,2.80
2022-11-16T13:21:23.734Z,2.90
2022-11-16T13:24:07.603Z,2.90
2022-11-16T13:26:37.662Z,2.90
2022-11-16T13:29:23.683Z,2.80
2022-11-16T13:31:50.865Z,2.80
2022-11-16T13:34:24.137Z,2.90
2022-11-16T13:36:51.340Z,2.80
2022-11-16T13:39:23.052Z,2.80
2022-11-16T13:41:51.885Z,2.70
2022-11-16T13:44:20.393Z,2.80
2022-11-16T13:46:56.924Z,2.70
2022-11-16T13:49:24.798Z,2.70
2022-11-16T13:51:56.003Z,2.70
2022-11-16T13:54:50.730Z,2.70
2022-11-16T13:57:24.461Z,2.70
2022-11-16T14:00:08.847Z,2.60
2022-11-16T14:02:41.450Z,2.50
2022-11-16T14:05:14.666Z,2.40
2022-11-16T14:07:50.251Z,2.40
2022-11-16T14:10:36.183Z,2.40
2022-11-16T14:13:23.352Z,2.40
2022-11-16T14:16:10.666Z,2.30
2022-11-16T14:18:38.434Z,2.30
2022-11-16T14:21:15.561Z,2.30
2022-11-16T14:23:48.512Z,2.20
2022-11-16T14:26:34.069Z,2.20
2022-11-16T14:29:10.156Z,2.20
2022-11-16T14:31:52.743Z,2.10
2022-11-16T14:34:25.943Z,2.10
2022-11-16T14:36:53.459Z,2.10
2022-11-16T14:39:26.791Z,2.10
2022-11-16T14:41:54.351Z,2.10
2022-11-16T14:44:22.744Z,2.10
2022-11-16T14:46:49.776Z,2.10
2022-11-16T14:49:17.305Z,2.10
2022-11-16T14:51:46.443Z,2.00
2022-11-16T14:54:17.614Z,2.00
2022-11-16T14:57:01.239Z,1.90
2022-11-16T14:59:29.291Z,1.90
2022-11-16T15:01:56.607Z,1.90
2022-11-16T15:04:25.896Z,1.90
2022-11-16T15:07:03.779Z,1.90
2022-11-16T15:09:35.219Z,1.90
2022-11-16T15:12:22.067Z,1.90
2022-11-16T15:14:53.809Z,1.90
2022-11-16T15:17:27.217Z,1.90
2022-11-16T15:19:59.918Z,1.90
2022-11-16T15:22:28.401Z,1.80
2022-11-16T15:24:58.751Z,1.80
2022-11-16T15:27:39.102Z,1.90
2022-11-16T15:30:18.377Z,1.90
2022-11-16T15:32:46.648Z,1.90
2022-11-16T15:35:19.756Z,1.90
2022-11-16T15:37:47.461Z,1.80
2022-11-16T15:40:14.982Z,1.80
2022-11-16T15:42:42.516Z,1.80
2022-11-16T15:45:15.861Z,1.80
2022-11-16T15:47:43.790Z,1.80
2022-11-16T15:50:18.687Z,1.80
2022-11-16T15:52:47.696Z,1.80
2022-11-16T15:55:32.165Z,1.80
2022-11-16T15:58:04.941Z,1.80
2022-11-16T16:00:35.047Z,1.80
2022-11-16T16:03:07.578Z,1.70
2022-11-16T16:05:35.571Z,1.70
2022-11-16T16:08:03.711Z,1.80
2022-11-16T16:10:30.905Z,1.70
2022-11-16T16:13:01.532Z,1.60
2022-11-16T16:15:30.270Z,1.60
2022-11-16T16:17:58.646Z,1.60
2022-11-16T16:20:27.564Z,1.60
2022-11-16T16:23:06.678Z,1.60
2022-11-16T16:25:34.790Z,1.70
2022-11-16T16:28:02.298Z,1.60
2022-11-16T16:30:30.444Z,1.60
2022-11-16T16:32:57.623Z,1.70
2022-11-16T16:35:25.380Z,1.60
2022-11-16T16:37:57.120Z,1.60
2022-11-16T16:40:24.367Z,1.60
2022-11-16T16:42:52.629Z,1.60
2022-11-16T16:45:41.684Z,1.70
2022-11-16T16:48:10.043Z,1.60
2022-11-16T16:50:37.285Z,1.60
2022-11-16T16:53:05.086Z,1.50
2022-11-16T16:55:37.052Z,1.60
2022-11-16T16:58:05.493Z,1.60
2022-11-16T17:00:32.566Z,1.60
2022-11-16T17:02:59.657Z,1.60
2022-11-16T17:05:26.811Z,1.60
2022-11-16T17:07:56.730Z,1.60
2022-11-16T17:10:23.979Z,1.70
2022-11-16T17:12:53.646Z,1.70
2022-11-16T17:15:20.711Z,1.70
2022-11-16T17:17:47.977Z,1.80
2022-11-16T17:20:16.432Z,1.70
2022-11-16T17:22:43.939Z,1.70
2022-11-16T17:25:11.130Z,1.70
2022-11-16T17:27:38.332Z,1.70
2022-11-16T17:30:05.688Z,1.70
2022-11-16T17:32:32.937Z,1.70
2022-11-16T17:34:59.987Z,1.60
2022-11-16T17:37:27.114Z,1.60
2022-11-16T17:39:54.103Z,1.60
2022-11-16T17:42:21.311Z,1.60
2022-11-16T17:44:48.769Z,1.60
2022-11-16T17:47:15.844Z,1.60
2022-11-16T17:49:42.958Z,1.50
2022-11-16T17:52:10.215Z,1.50
2022-11-16T17:54:37.404Z,1.60
2022-11-16T17:57:04.507Z,1.60
2022-11-16T17:59:31.637Z,1.60
2022-11-16T18:01:58.776Z,1.50
2022-11-16T18:04:25.910Z,1.40
2022-11-16T18:06:53.169Z,1.40
2022-11-16T18:09:20.437Z,1.40
2022-11-16T18:11:47.571Z,1.40
2022-11-16T18:14:14.584Z,1.30
2022-11-16T18:16:43.663Z,1.20
2022-11-16T18:19:15.624Z,1.20
2022-11-16T18:21:43.179Z,1.20
2022-11-16T18:24:10.733Z,1.20
2022-11-16T18:26:38.614Z,1.20
2022-11-16T18:29:07.416Z,1.20
2022-11-16T18:31:34.906Z,1.20
2022-11-16T18:34:02.215Z,1.20
2022-11-16T18:36:29.324Z,1.10
2022-11-16T18:38:57.830Z,1.10
2022-11-16T18:41:26.900Z,1.10
2022-11-16T18:43:56.414Z,1.10
2022-11-16T18:46:27.629Z,1.10
2022-11-16T18:48:55.708Z,1.10
2022-11-16T18:51:24.178Z,1.10
2022-11-16T18:53:51.648Z,1.10
2022-11-16T18:56:20.289Z,1.10
2022-11-16T18:58:52.292Z,1.20
2022-11-16T19:01:24.892Z,1.10
2022-11-16T19:03:52.775Z,1.10
2022-11-16T19:06:20.461Z,1.10
2022-11-16T19:08:54.987Z,1.00
2022-11-16T19:11:23.427Z,1.00
2022-11-16T19:13:56.519Z,0.90
2022-11-16T19:16:24.745Z,0.90
2022-11-16T19:18:52.370Z,0.90
2022-11-16T19:21:19.970Z,0.90
2022-11-16T19:23:47.856Z,1.00
2022-11-16T19:26:16.542Z,0.80
2022-11-16T19:28:44.791Z,0.70
2022-11-16T19:31:19.088Z,0.70
2022-11-16T19:33:46.512Z,0.70
2022-11-16T19:36:16.195Z,0.60
2022-11-16T19:38:43.853Z,0.60
2022-11-16T19:41:11.583Z,0.60
2022-11-16T19:43:39.164Z,0.60
2022-11-16T19:46:17.515Z,0.60
2022-11-16T19:48:47.018Z,0.60
2022-11-16T19:51:24.013Z,0.50
2022-11-16T19:53:51.885Z,0.50
2022-11-16T19:56:20.618Z,0.50
2022-11-16T19:58:48.752Z,0.50
2022-11-16T20:01:36.725Z,0.50
2022-11-16T20:04:05.554Z,0.50
2022-11-16T20:06:34.521Z,0.50
2022-11-16T20:09:04.249Z,0.50
2022-11-16T20:11:33.834Z,0.40
2022-11-16T20:14:03.386Z,0.50
2022-11-16T20:16:38.398Z,0.40
2022-11-16T20:19:09.351Z,0.40
2022-11-16T20:21:38.497Z,0.40
2022-11-16T20:24:07.253Z,0.40
2022-11-16T20:26:35.352Z,0.40
2022-11-16T20:29:02.564Z,0.40
2022-11-16T20:31:31.649Z,0.40
2022-11-16T20:34:00.880Z,0.40
2022-11-16T20:36:33.225Z,0.40
2022-11-16T20:39:00.745Z,0.40
2022-11-16T20:41:31.362Z,0.40
2022-11-16T20:43:59.232Z,0.40
2022-11-16T20:46:28.081Z,0.40
2022-11-16T20:48:57.688Z,0.40
2022-11-16T20:51:26.767Z,0.40
2022-11-16T20:53:54.162Z,0.40
2022-11-16T20:56:21.728Z,0.40
2022-11-16T20:58:49.319Z,0.40
2022-11-16T21:01:18.024Z,0.40
2022-11-16T21:03:45.756Z,0.40
2022-11-16T21:06:13.548Z,0.40
2022-11-16T21:08:41.151Z,0.40
2022-11-16T21:11:15.727Z,0.40
2022-11-16T21:14:03.413Z,0.40
2022-11-16T21:16:31.437Z,0.40
2022-11-16T21:18:58.676Z,0.40
2022-11-16T21:21:26.284Z,0.40
2022-11-16T21:23:54.380Z,0.40
2022-11-16T21:26:25.375Z,0.40
2022-11-16T21:28:52.910Z,0.40
2022-11-16T21:31:22.116Z,0.40
2022-11-16T21:33:49.577Z,0.40
2022-11-16T21:36:18.031Z,0.40
2022-11-16T21:38:45.806Z,0.30
2022-11-16T21:41:14.118Z,0.20
2022-11-16T21:43:42.165Z,0.20
2022-11-16T21:46:14.130Z,0.20
2022-11-16T21:48:41.327Z,0.20
2022-11-16T21:51:09.860Z,0.20
2022-11-16T21:53:37.644Z,0.20
2022-11-16T21:56:05.823Z,0.20
2022-11-16T21:58:33.104Z,0.20
2022-11-16T22:01:01.284Z,0.20
2022-11-16T22:03:29.549Z,0.20
2022-11-16T22:06:16.292Z,0.30
2022-11-16T22:08:43.548Z,0.20
2022-11-16T22:11:11.141Z,0.30
2022-11-16T22:13:38.388Z,0.30
2022-11-16T22:16:06.900Z,0.20
2022-11-16T22:18:34.328Z,0.20
2022-11-16T22:21:02.170Z,0.20
2022-11-16T22:23:29.755Z,0.20
2022-11-16T22:26:04.359Z,0.20
2022-11-16T22:28:32.772Z,0.20
2022-11-16T22:31:00.634Z,0.20
2022-11-16T22:33:27.977Z,0.30
2022-11-16T22:35:55.313Z,0.30
2022-11-16T22:38:22.482Z,0.30
2022-11-16T22:40:53.331Z,0.30
2022-11-16T22:43:21.416Z,0.30
2022-11-16T22:45:48.768Z,0.30
2022-11-16T22:48:15.899Z,0.30
2022-11-16T22:50:43.148Z,0.40
2022-11-16T22:53:10.747Z,0.40
2022-11-16T22:55:38.587Z,0.30
2022-11-16T22:58:05.924Z,0.30
2022-11-16T23:00:38.943Z,0.30
2022-11-16T23:03:09.070Z,0.30
2022-11-16T23:05:36.249Z,0.30
2022-11-16T23:08:03.325Z,0.30
2022-11-16T23:10:50.562Z,0.30
2022-11-16T23:13:36.320Z,0.30
2022-11-16T23:16:04.666Z,0.30
2022-11-16T23:18:31.856Z,0.40
2022-11-16T23:21:17.666Z,0.40
2022-11-16T23:24:02.975Z,0.50
2022-11-16T23:26:49.310Z,0.50
2022-11-16T23:29:16.593Z,0.40
2022-11-16T23:31:43.710Z,0.40
2022-11-16T23:34:10.971Z,0.30
2022-11-16T23:36:38.250Z,0.20
2022-11-16T23:39:05.311Z,0.10
2022-11-16T23:41:51.090Z,0.10
2022-11-16T23:44:18.173Z,0.10
2022-11-16T23:46:45.868Z,0.10
2022-11-16T23:49:13.029Z,0.00
2022-11-16T23:51:40.090Z,-0.10
2022-11-16T23:54:07.666Z,-0.10
2022-11-16T23:56:34.859Z,-0.10
2022-11-16T23:59:02.033Z,0.00
